Time;durP1;ratioP1;P1;durP2;ratioP2;P2;SDS_P1;SDS_P2;PMS_P1;PMS_P2;Temp;Humidity;BMP_temperature;BMP_pressure;BME280_temperature;BME280_humidity;BME280_pressure;Samples;Min_cycle;Max_cycle;Signal;HPM_P1;HPM_P2
2023/03/03 00:00:49;;;;;;;;;;;;;;;2.02;74.98;102370.34;5027842;28;20344;-61
2023/03/03 00:03:16;;;;;;;;;;;;;;;2.00;75.24;102377.44;5024523;28;19932;-61
2023/03/03 00:05:41;;;;;;;;;;;;;;;1.99;75.31;102377.50;5024439;28;20000;-61
2023/03/03 00:08:07;;;;;;;;;;;;;;;1.95;75.40;102378.59;5030235;28;20008;-61
2023/03/03 00:10:32;;;;;;;;;;;;;;;1.92;75.36;102382.22;5019302;28;19921;-61
2023/03/03 00:12:57;;;;;;;;;;;;;;;1.91;75.29;102390.16;5026149;28;20398;-61
2023/03/03 00:15:23;;;;;;;;;;;;;;;1.90;75.50;102388.47;5019475;28;20365;-61
2023/03/03 00:17:49;;;;;;;;;;;;;;;1.92;75.58;102386.59;5017130;28;19940;-61
2023/03/03 00:20:20;;;;;;;;;;;;;;;1.94;75.92;102390.00;5020122;28;20478;-61
2023/03/03 00:22:45;;;;;;;;;;;;;;;1.95;76.19;102395.16;5023931;28;19963;-61
2023/03/03 00:25:30;;;;;;;;;;;;;;;1.97;76.37;102384.59;5026124;28;19972;-61
2023/03/03 00:28:00;;;;;;;;;;;;;;;1.99;76.77;102382.75;5029063;28;19974;-61
2023/03/03 00:30:26;;;;;;;;;;;;;;;1.99;77.00;102378.34;5016301;28;19918;-61
2023/03/03 00:32:52;;;;;;;;;;;;;;;2.01;77.51;102383.53;5024727;28;19914;-61
2023/03/03 00:35:34;;;;;;;;;;;;;;;2.04;77.84;102386.84;5026013;28;19959;-61
2023/03/03 00:38:03;;;;;;;;;;;;;;;2.04;78.28;102392.09;5027122;28;19925;-61
2023/03/03 00:40:36;;;;;;;;;;;;;;;2.05;78.40;102390.31;5021702;28;20348;-61
2023/03/03 00:43:11;;;;;;;;;;;;;;;2.05;78.74;102387.72;5004217;28;20342;-61
2023/03/03 00:45:44;;;;;;;;;;;;;;;2.05;79.14;102387.72;5024227;28;19925;-61
2023/03/03 00:48:20;;;;;;;;;;;;;;;2.05;79.53;102388.56;5025848;28;19921;-61
2023/03/03 00:50:46;;;;;;;;;;;;;;;2.06;79.92;102385.00;5021809;28;20347;-61
2023/03/03 00:53:13;;;;;;;;;;;;;;;2.06;80.93;102390.25;5019362;28;20437;-61
2023/03/03 00:55:39;;;;;;;;;;;;;;;2.04;81.36;102392.09;5024548;28;20004;-61
2023/03/03 00:58:05;;;;;;;;;;;;;;;2.03;81.50;102394.81;5028336;28;19924;-61
2023/03/03 01:00:30;;;;;;;;;;;;;;;2.03;81.83;102389.56;5019658;28;19917;-61
2023/03/03 01:02:55;;;;;;;;;;;;;;;2.02;82.14;102391.31;5018828;28;19918;-61
2023/03/03 01:05:21;;;;;;;;;;;;;;;2.01;82.73;102407.94;5023530;28;19917;-61
2023/03/03 01:07:46;;;;;;;;;;;;;;;1.99;83.00;102395.84;5024203;28;19917;-61
2023/03/03 01:10:11;;;;;;;;;;;;;;;1.98;83.25;102405.47;5012383;28;20337;-61
2023/03/03 01:12:37;;;;;;;;;;;;;;;1.98;83.35;102400.25;5021533;28;19917;-61
2023/03/03 01:15:03;;;;;;;;;;;;;;;1.99;83.56;102401.09;5027496;28;19913;-61
2023/03/03 01:17:28;;;;;;;;;;;;;;;2.01;83.65;102401.84;5022401;28;20433;-61
2023/03/03 01:19:53;;;;;;;;;;;;;;;2.01;83.53;102410.56;5025258;28;20271;-61
2023/03/03 01:22:19;;;;;;;;;;;;;;;2.02;83.54;102399.16;5015689;28;19932;-61
2023/03/03 01:24:44;;;;;;;;;;;;;;;2.04;83.85;102405.19;5002130;28;20333;-61
2023/03/03 01:27:09;;;;;;;;;;;;;;;2.03;83.91;102406.13;5015117;28;19932;-61
2023/03/03 01:29:34;;;;;;;;;;;;;;;2.03;84.04;102411.38;5017010;28;20063;-61
2023/03/03 01:31:59;;;;;;;;;;;;;;;2.01;84.44;102407.94;5020380;28;20399;-61
2023/03/03 01:34:24;;;;;;;;;;;;;;;2.00;84.76;102410.66;5018880;28;20386;-61
2023/03/03 01:36:50;;;;;;;;;;;;;;;1.97;84.78;102411.66;5012153;28;19921;-61
2023/03/03 01:39:15;;;;;;;;;;;;;;;1.97;84.55;102401.16;5019662;28;20384;-61
2023/03/03 01:41:40;;;;;;;;;;;;;;;1.97;84.64;102416.88;5023171;28;19924;-61
2023/03/03 01:44:05;;;;;;;;;;;;;;;1.96;84.54;102409.94;5011493;28;19921;-61
2023/03/03 01:46:45;;;;;;;;;;;;;;;1.97;84.41;102413.41;5018267;28;19925;-61
2023/03/03 01:49:13;;;;;;;;;;;;;;;1.96;84.52;102419.59;5020459;28;19920;-61
2023/03/03 01:51:44;;;;;;;;;;;;;;;1.95;84.52;102421.34;5020028;28;19955;-61
2023/03/03 01:54:13;;;;;;;;;;;;;;;1.95;84.39;102417.88;5022097;28;19948;-61
2023/03/03 01:56:40;;;;;;;;;;;;;;;1.96;84.29;102422.22;5019920;28;19924;-61
2023/03/03 01:59:08;;;;;;;;;;;;;;;1.96;84.22;102420.44;5017786;28;20357;-61
2023/03/03 02:01:33;;;;;;;;;;;;;;;1.95;84.26;102417.88;5014051;28;19925;-61
2023/03/03 02:03:59;;;;;;;;;;;;;;;1.93;84.26;102417.97;5013862;28;19925;-60
2023/03/03 02:06:27;;;;;;;;;;;;;;;1.93;84.36;102423.22;5016781;28;19996;-61
2023/03/03 02:08:58;;;;;;;;;;;;;;;1.92;84.66;102423.28;5018276;28;19936;-61
2023/03/03 02:11:24;;;;;;;;;;;;;;;1.89;84.71;102421.66;5015343;28;19917;-61
2023/03/03 02:13:49;;;;;;;;;;;;;;;1.89;84.62;102419.06;5019211;28;20445;-61
2023/03/03 02:16:15;;;;;;;;;;;;;;;1.89;84.62;102424.28;5013727;28;19975;-61
2023/03/03 02:18:40;;;;;;;;;;;;;;;1.89;84.84;102420.81;5022605;28;19944;-60
2023/03/03 02:21:10;;;;;;;;;;;;;;;1.88;84.94;102422.59;5021472;28;19925;-61
2023/03/03 02:23:54;;;;;;;;;;;;;;;1.84;85.01;102421.06;5024019;28;20391;-61
2023/03/03 02:26:26;;;;;;;;;;;;;;;1.81;85.17;102419.44;5018104;28;19926;-60
2023/03/03 02:28:51;;;;;;;;;;;;;;;1.79;85.25;102421.28;5025941;28;20500;-61
2023/03/03 02:31:18;;;;;;;;;;;;;;;1.78;85.36;102426.59;5026048;28;19917;-60
2023/03/03 02:33:44;;;;;;;;;;;;;;;1.76;85.41;102431.91;5021373;28;19924;-61
2023/03/03 02:36:17;;;;;;;;;;;;;;;1.72;85.31;102419.84;5018847;28;20024;-61
2023/03/03 02:38:42;;;;;;;;;;;;;;;1.69;85.26;102422.63;5032314;28;19925;-61
2023/03/03 02:41:20;;;;;;;;;;;;;;;1.67;85.47;102426.25;5025694;28;19925;-61
2023/03/03 02:43:53;;;;;;;;;;;;;;;1.67;85.31;102427.09;5022977;28;19933;-60
2023/03/03 02:46:18;;;;;;;;;;;;;;;1.67;85.41;102429.72;5014628;28;20000;-61
2023/03/03 02:48:43;;;;;;;;;;;;;;;1.67;85.62;102426.25;5025187;28;20349;-61
2023/03/03 02:51:09;;;;;;;;;;;;;;;1.65;85.73;102420.25;5026375;28;19928;-61
2023/03/03 02:53:34;;;;;;;;;;;;;;;1.63;85.74;102417.69;5023097;28;19933;-60
2023/03/03 02:55:59;;;;;;;;;;;;;;;1.62;85.98;102418.63;5023342;28;20423;-61
2023/03/03 02:58:24;;;;;;;;;;;;;;;1.61;85.81;102416.94;5029419;28;19921;-61
2023/03/03 03:00:49;;;;;;;;;;;;;;;1.61;85.69;102421.31;5025144;28;20007;-61
2023/03/03 03:03:15;;;;;;;;;;;;;;;1.60;85.70;102415.22;5025913;28;19931;-61
2023/03/03 03:05:40;;;;;;;;;;;;;;;1.61;85.79;102418.69;5014818;28;19983;-60
2023/03/03 03:08:05;;;;;;;;;;;;;;;1.61;85.78;102423.94;5014277;28;19921;-61
2023/03/03 03:10:30;;;;;;;;;;;;;;;1.61;85.82;102429.16;5024676;28;19972;-61
2023/03/03 03:12:55;;;;;;;;;;;;;;;1.60;86.11;102422.25;5024740;28;19917;-60
2023/03/03 03:15:21;;;;;;;;;;;;;;;1.58;86.12;102426.69;5028521;28;20393;-61
2023/03/03 03:17:46;;;;;;;;;;;;;;;1.56;86.26;102426.78;5017362;28;19921;-61
2023/03/03 03:20:11;;;;;;;;;;;;;;;1.53;86.28;102429.53;5020446;28;19914;-61
2023/03/03 03:22:36;;;;;;;;;;;;;;;1.52;86.46;102427.84;5024645;28;19964;-61
2023/03/03 03:25:02;;;;;;;;;;;;;;;1.53;86.62;102434.78;5022646;28;19913;-61
2023/03/03 03:27:27;;;;;;;;;;;;;;;1.52;86.64;102431.31;5021752;28;20043;-61
2023/03/03 03:29:52;;;;;;;;;;;;;;;1.52;86.70;102433.94;5023812;28;19990;-61
2023/03/03 03:32:17;;;;;;;;;;;;;;;1.51;86.80;102437.47;5018741;28;20344;-61
2023/03/03 03:34:42;;;;;;;;;;;;;;;1.50;86.79;102437.56;5023056;28;19913;-61
2023/03/03 03:37:08;;;;;;;;;;;;;;;1.46;87.03;102439.47;5027133;28;19921;-61
2023/03/03 03:39:34;;;;;;;;;;;;;;;1.43;86.77;102438.72;5014815;28;19925;-61
2023/03/03 03:41:59;;;;;;;;;;;;;;;1.33;86.85;102440.94;5026287;28;20019;-60
2023/03/03 03:44:24;;;;;;;;;;;;;;;1.30;86.96;102445.47;5022170;28;19939;-61
2023/03/03 03:46:49;;;;;;;;;;;;;;;1.26;87.17;102431.69;5004159;28;19925;-61
2023/03/03 03:49:14;;;;;;;;;;;;;;;1.24;87.39;102437.00;5022783;28;20567;-61
2023/03/03 03:51:40;;;;;;;;;;;;;;;1.24;87.09;102434.38;5012221;28;19918;-61
2023/03/03 03:54:06;;;;;;;;;;;;;;;1.26;87.20;102436.94;5026539;28;20008;-61
2023/03/03 03:56:31;;;;;;;;;;;;;;;1.24;87.21;102442.22;5022032;28;20000;-61
2023/03/03 03:58:56;;;;;;;;;;;;;;;1.24;87.23;102437.00;5024227;28;19921;-60
2023/03/03 04:01:21;;;;;;;;;;;;;;;1.26;87.51;102430.84;5019059;28;19924;-61
2023/03/03 04:03:47;;;;;;;;;;;;;;;1.26;87.49;102438.69;5017951;28;19913;-61
2023/03/03 04:06:13;;;;;;;;;;;;;;;1.29;87.67;102442.00;5025425;28;19917;-61
2023/03/03 04:08:38;;;;;;;;;;;;;;;1.31;87.70;102440.16;5024784;28;19948;-61
2023/03/03 04:11:03;;;;;;;;;;;;;;;1.33;87.92;102446.19;5008963;28;19920;-61
2023/03/03 04:13:30;;;;;;;;;;;;;;;1.36;87.70;102451.28;5021390;28;19917;-61
2023/03/03 04:15:56;;;;;;;;;;;;;;;1.40;87.63;102442.34;5020565;28;19928;-61
2023/03/03 04:18:21;;;;;;;;;;;;;;;1.43;87.73;102441.34;5024372;28;19921;-61
2023/03/03 04:20:46;;;;;;;;;;;;;;;1.45;87.79;102436.94;5021574;28;19924;-61
2023/03/03 04:23:11;;;;;;;;;;;;;;;1.47;87.73;102448.16;5022443;28;19996;-61
2023/03/03 04:25:37;;;;;;;;;;;;;;;1.46;87.80;102442.09;5021826;28;20306;-61
2023/03/03 04:28:02;;;;;;;;;;;;;;;1.48;87.88;102440.25;5023231;28;20000;-61
2023/03/03 04:30:27;;;;;;;;;;;;;;;1.48;87.79;102442.00;5026116;28;20057;-61
2023/03/03 04:32:52;;;;;;;;;;;;;;;1.46;87.86;102446.47;5027112;28;20417;-61
2023/03/03 04:35:17;;;;;;;;;;;;;;;1.47;88.05;102443.78;5020666;28;19924;-61
2023/03/03 04:37:43;;;;;;;;;;;;;;;1.47;88.09;102438.53;5023985;28;20406;-61
2023/03/03 04:40:08;;;;;;;;;;;;;;;1.47;88.14;102440.31;5018643;28;20561;-61
2023/03/03 04:42:34;;;;;;;;;;;;;;;1.46;88.16;102442.09;5023550;28;19921;-61
2023/03/03 04:44:59;;;;;;;;;;;;;;;1.46;88.25;102442.09;5028616;28;19948;-61
2023/03/03 04:47:24;;;;;;;;;;;;;;;1.47;88.43;102448.16;5025034;28;19962;-61
2023/03/03 04:49:49;;;;;;;;;;;;;;;1.46;88.44;102446.47;5028539;28;19947;-61
2023/03/03 04:52:14;;;;;;;;;;;;;;;1.45;88.60;102453.47;5025339;28;20052;-61
2023/03/03 04:54:40;;;;;;;;;;;;;;;1.45;88.55;102442.16;5024764;28;20008;-61
2023/03/03 04:57:05;;;;;;;;;;;;;;;1.44;88.59;102449.13;5022710;28;19995;-61
2023/03/03 04:59:30;;;;;;;;;;;;;;;1.47;88.70;102451.63;5024927;28;19917;-61
2023/03/03 05:01:55;;;;;;;;;;;;;;;1.48;88.78;102455.94;5022534;28;19957;-61
2023/03/03 05:04:20;;;;;;;;;;;;;;;1.49;88.54;102451.56;5025009;28;19948;-61
2023/03/03 05:06:45;;;;;;;;;;;;;;;1.51;88.58;102458.41;5026568;28;19921;-61
2023/03/03 05:09:11;;;;;;;;;;;;;;;1.53;88.67;102458.34;5024804;28;19961;-61
2023/03/03 05:11:36;;;;;;;;;;;;;;;1.55;88.60;102459.13;5023628;28;19957;-60
2023/03/03 05:14:01;;;;;;;;;;;;;;;1.57;88.55;102467.75;5030870;28;20019;-61
2023/03/03 05:16:27;;;;;;;;;;;;;;;1.58;88.48;102468.59;5027392;28;19961;-61
2023/03/03 05:18:52;;;;;;;;;;;;;;;1.55;88.65;102465.19;5009260;28;19971;-61
2023/03/03 05:21:17;;;;;;;;;;;;;;;1.57;88.41;102461.66;5028387;28;19917;-61
2023/03/03 05:23:43;;;;;;;;;;;;;;;1.57;88.48;102464.28;5027860;28;20379;-61
2023/03/03 05:26:08;;;;;;;;;;;;;;;1.58;88.54;102468.59;5025697;28;19917;-61
2023/03/03 05:28:33;;;;;;;;;;;;;;;1.59;88.37;102473.75;5020743;28;19925;-61
2023/03/03 05:30:58;;;;;;;;;;;;;;;1.61;88.43;102464.06;5027046;28;20488;-61
2023/03/03 05:33:24;;;;;;;;;;;;;;;1.59;88.52;102465.06;5022663;28;19947;-61
2023/03/03 05:35:52;;;;;;;;;;;;;;;1.59;88.42;102467.66;5013237;28;19921;-61
2023/03/03 05:38:17;;;;;;;;;;;;;;;1.59;88.25;102465.06;5024630;28;20009;-61
2023/03/03 05:40:43;;;;;;;;;;;;;;;1.57;88.34;102465.13;5027697;28;20011;-61
2023/03/03 05:43:08;;;;;;;;;;;;;;;1.58;88.42;102469.44;5022269;28;19967;-60
2023/03/03 05:45:34;;;;;;;;;;;;;;;1.59;88.18;102458.03;5017661;28;19968;-61
2023/03/03 05:47:59;;;;;;;;;;;;;;;1.62;88.06;102464.91;5026698;28;19971;-61
2023/03/03 05:50:24;;;;;;;;;;;;;;;1.63;88.01;102463.97;5022996;28;19924;-60
2023/03/03 05:52:50;;;;;;;;;;;;;;;1.63;87.89;102464.84;5026557;28;20342;-61
2023/03/03 05:55:15;;;;;;;;;;;;;;;1.63;88.04;102466.59;5025742;28;19971;-61
2023/03/03 05:57:40;;;;;;;;;;;;;;;1.61;88.00;102465.81;5022365;28;19967;-61
2023/03/03 06:00:07;;;;;;;;;;;;;;;1.61;88.09;102466.66;5019575;28;19917;-61
2023/03/03 06:02:32;;;;;;;;;;;;;;;1.63;87.79;102469.22;5014955;28;20420;-61
2023/03/03 06:04:58;;;;;;;;;;;;;;;1.64;87.53;102463.06;5018641;28;19913;-61
2023/03/03 06:07:23;;;;;;;;;;;;;;;1.64;87.87;102474.38;5022340;28;19924;-61
2023/03/03 06:09:48;;;;;;;;;;;;;;;1.66;87.89;102476.94;5020467;28;20505;-61
2023/03/03 06:12:13;;;;;;;;;;;;;;;1.67;87.83;102487.31;5027427;28;19917;-61
2023/03/03 06:14:38;;;;;;;;;;;;;;;1.66;87.82;102485.63;5026046;28;19921;-61
2023/03/03 06:17:05;;;;;;;;;;;;;;;1.64;87.95;102481.38;5024217;28;20419;-61
2023/03/03 06:19:30;;;;;;;;;;;;;;;1.64;87.87;102487.47;5025593;28;19976;-61
2023/03/03 06:21:55;;;;;;;;;;;;;;;1.64;88.01;102490.09;5029891;28;20403;-61
2023/03/03 06:24:23;;;;;;;;;;;;;;;1.66;87.84;102493.47;5011094;28;19924;-61
2023/03/03 06:26:48;;;;;;;;;;;;;;;1.67;88.04;102500.41;5029244;28;20063;-61
2023/03/03 06:29:14;;;;;;;;;;;;;;;1.67;87.96;102497.81;5028589;28;20026;-61
2023/03/03 06:31:39;;;;;;;;;;;;;;;1.69;87.78;102502.97;5029665;28;19924;-61
2023/03/03 06:34:04;;;;;;;;;;;;;;;1.70;87.83;102496.81;5025949;28;20366;-61
2023/03/03 06:36:30;;;;;;;;;;;;;;;1.71;87.80;102509.81;5028505;28;19932;-61
2023/03/03 06:38:55;;;;;;;;;;;;;;;1.73;87.69;102507.97;5026572;28;19922;-61
2023/03/03 06:41:20;;;;;;;;;;;;;;;1.77;87.59;102524.44;5024223;28;20446;-61
2023/03/03 06:43:45;;;;;;;;;;;;;;;1.79;87.47;102517.34;5012550;28;19981;-61
2023/03/03 06:46:10;;;;;;;;;;;;;;;1.82;87.62;102522.44;4963609;28;1701887;-60
2023/03/03 06:48:35;;;;;;;;;;;;;;;1.82;87.55;102525.06;5025518;28;19925;-61
2023/03/03 06:51:02;;;;;;;;;;;;;;;1.83;87.50;102530.22;5026338;28;19956;-60
2023/03/03 06:53:27;;;;;;;;;;;;;;;1.83;87.52;102527.59;5020968;28;19932;-61
2023/03/03 06:55:56;;;;;;;;;;;;;;;1.83;87.59;102539.84;5017050;28;19979;-61
2023/03/03 06:58:23;;;;;;;;;;;;;;;1.83;87.63;102535.44;5024312;28;19918;-61
2023/03/03 07:00:52;;;;;;;;;;;;;;;1.80;87.84;102535.59;5023456;28;19918;-61
2023/03/03 07:03:20;;;;;;;;;;;;;;;1.80;87.80;102534.75;5022306;28;19921;-61
2023/03/03 07:05:45;;;;;;;;;;;;;;;1.81;87.81;102533.81;5029877;28;19917;-61
2023/03/03 07:08:12;;;;;;;;;;;;;;;1.81;87.83;102537.28;5022738;28;19917;-61
2023/03/03 07:10:38;;;;;;;;;;;;;;;1.84;87.88;102538.91;5016053;28;19913;-61
2023/03/03 07:13:18;;;;;;;;;;;;;;;1.85;87.90;102538.84;5022812;28;19940;-61
2023/03/03 07:15:43;;;;;;;;;;;;;;;1.78;87.90;102526.97;5027130;28;19917;-60
2023/03/03 07:18:22;;;;;;;;;;;;;;;1.87;88.08;102541.38;5028764;28;20384;-61
2023/03/03 07:20:47;;;;;;;;;;;;;;;1.90;87.92;102545.63;5020610;28;20374;-61
2023/03/03 07:23:32;;;;;;;;;;;;;;;1.92;87.78;102549.03;5029344;28;19917;-61
2023/03/03 07:25:58;;;;;;;;;;;;;;;1.95;87.74;102548.88;5025107;28;19914;-60
2023/03/03 07:28:24;;;;;;;;;;;;;;;1.98;87.72;102543.50;5020117;28;20448;-61
2023/03/03 07:30:50;;;;;;;;;;;;;;;1.99;87.81;102550.44;5014947;28;20421;-61
2023/03/03 07:33:24;;;;;;;;;;;;;;;2.01;87.78;102559.06;5023915;28;19913;-61
2023/03/03 07:35:49;;;;;;;;;;;;;;;2.02;87.95;102556.38;5025384;28;19920;-61
2023/03/03 07:38:28;;;;;;;;;;;;;;;2.04;87.62;102566.81;5026442;28;19928;-61
2023/03/03 07:40:55;;;;;;;;;;;;;;;2.06;87.54;102562.34;5026300;28;19928;-61
2023/03/03 07:43:38;;;;;;;;;;;;;;;2.06;87.69;102563.19;5022401;28;20365;-61
2023/03/03 07:46:09;;;;;;;;;;;;;;;2.07;87.65;102572.75;5019755;28;19918;-61
2023/03/03 07:48:35;;;;;;;;;;;;;;;2.09;87.48;102575.28;5022019;28;19958;-61
2023/03/03 07:51:04;;;;;;;;;;;;;;;2.08;87.66;102570.97;5029802;28;19929;-61
2023/03/03 07:53:33;;;;;;;;;;;;;;;2.07;87.52;102571.91;5029763;28;19917;-61
2023/03/03 07:55:58;;;;;;;;;;;;;;;2.07;87.46;102590.25;5021884;28;19925;-61
2023/03/03 07:58:34;;;;;;;;;;;;;;;2.07;87.39;102583.22;5015523;28;19917;-61
2023/03/03 08:01:38;;;;;;;;;;;;;;;2.00;87.36;102570.47;5026419;28;19924;-61
2023/03/03 08:04:08;;;;;;;;;;;;;;;2.05;87.37;102579.84;4983677;28;20005;-61
2023/03/03 08:06:43;;;;;;;;;;;;;;;2.09;87.28;102588.38;5019317;28;19956;-61
2023/03/03 08:09:08;;;;;;;;;;;;;;;2.11;87.24;102583.94;5027951;28;19913;-61
2023/03/03 08:11:33;;;;;;;;;;;;;;;2.09;87.30;102586.63;5028639;28;19935;-61
2023/03/03 08:13:58;;;;;;;;;;;;;;;2.09;87.27;102588.38;5032876;28;20039;-61
2023/03/03 08:16:29;;;;;;;;;;;;;;;2.06;87.08;102592.00;5027950;28;19917;-61
2023/03/03 08:18:57;;;;;;;;;;;;;;;2.09;87.23;102604.97;5029140;28;20687;-61
2023/03/03 08:21:25;;;;;;;;;;;;;;;2.12;87.39;102602.19;5027757;28;19917;-60
2023/03/03 08:23:52;;;;;;;;;;;;;;;2.12;87.35;102593.47;5029020;28;20525;-61
2023/03/03 08:26:18;;;;;;;;;;;;;;;2.15;87.51;102598.56;5021259;28;19936;-61
2023/03/03 08:28:44;;;;;;;;;;;;;;;2.18;87.67;102594.03;5025681;28;20561;-61
2023/03/03 08:31:09;;;;;;;;;;;;;;;2.20;87.56;102604.44;5029435;28;19920;-61
2023/03/03 08:33:34;;;;;;;;;;;;;;;2.21;87.58;102607.91;5024053;28;20020;-61
2023/03/03 08:35:59;;;;;;;;;;;;;;;2.22;87.73;102614.84;5024917;28;19997;-60
2023/03/03 08:38:25;;;;;;;;;;;;;;;2.23;87.67;102608.69;5029268;28;20352;-61
2023/03/03 08:40:50;;;;;;;;;;;;;;;2.26;87.84;102616.41;5029732;28;20525;-61
2023/03/03 08:43:17;;;;;;;;;;;;;;;2.27;88.01;102611.09;5027287;28;19917;-61
2023/03/03 08:45:43;;;;;;;;;;;;;;;2.31;87.84;102619.66;5021914;28;19917;-62
2023/03/03 08:48:08;;;;;;;;;;;;;;;2.32;87.99;102618.75;5021495;28;20421;-61
2023/03/03 08:50:34;;;;;;;;;;;;;;;2.36;88.02;102622.91;5017654;28;19917;-61
2023/03/03 08:52:59;;;;;;;;;;;;;;;2.41;88.00;102623.53;5025890;28;19976;-61
2023/03/03 08:55:24;;;;;;;;;;;;;;;2.44;88.00;102626.00;5025564;28;19917;-61
2023/03/03 08:57:49;;;;;;;;;;;;;;;2.46;88.02;102619.78;5029262;28;20396;-61
2023/03/03 09:00:15;;;;;;;;;;;;;;;2.48;88.10;102623.16;5022699;28;19913;-61
2023/03/03 09:02:41;;;;;;;;;;;;;;;2.53;88.13;102619.47;5021101;28;19917;-61
2023/03/03 09:05:06;;;;;;;;;;;;;;;2.56;88.26;102629.81;5024462;28;19917;-61
2023/03/03 09:07:31;;;;;;;;;;;;;;;2.60;88.02;102629.59;5028003;28;20290;-61
2023/03/03 09:09:57;;;;;;;;;;;;;;;2.66;88.07;102631.06;5018694;28;20310;-61
2023/03/03 09:12:29;;;;;;;;;;;;;;;2.71;88.26;102639.56;5023199;28;19913;-61
2023/03/03 09:14:59;;;;;;;;;;;;;;;2.74;88.23;102639.41;5028031;28;19971;-61
2023/03/03 09:17:27;;;;;;;;;;;;;;;2.78;88.15;102630.44;5027878;28;19971;-61
2023/03/03 09:19:55;;;;;;;;;;;;;;;2.84;87.99;102634.53;5027950;28;20449;-61
2023/03/03 09:22:22;;;;;;;;;;;;;;;2.89;88.15;102630.78;5023287;28;20357;-61
2023/03/03 09:24:48;;;;;;;;;;;;;;;2.94;87.94;102626.16;5028383;28;19936;-60
2023/03/03 09:27:18;;;;;;;;;;;;;;;2.98;87.89;102625.06;5021850;28;19917;-61
2023/03/03 09:29:43;;;;;;;;;;;;;;;3.03;87.81;102630.06;5021366;28;19917;-61
2023/03/03 09:32:20;;;;;;;;;;;;;;;3.07;87.90;102631.59;5024094;28;20007;-60
2023/03/03 09:34:45;;;;;;;;;;;;;;;3.14;87.82;102633.00;5016380;28;19924;-61
2023/03/03 09:37:31;;;;;;;;;;;;;;;3.20;87.52;102630.06;5025994;28;19925;-60
2023/03/03 09:39:56;;;;;;;;;;;;;;;3.25;87.51;102637.72;5008513;28;19942;-61
2023/03/03 09:42:25;;;;;;;;;;;;;;;3.26;87.34;102645.50;5028253;28;19920;-61
2023/03/03 09:45:09;;;;;;;;;;;;;;;3.27;87.15;102647.19;5018635;28;20382;-60
2023/03/03 09:47:37;;;;;;;;;;;;;;;3.28;87.03;102645.41;5019072;28;19921;-60
2023/03/03 09:50:21;;;;;;;;;;;;;;;3.26;86.82;102645.50;5016856;28;19921;-61
2023/03/03 09:52:52;;;;;;;;;;;;;;;3.26;86.76;102642.88;5017588;28;20585;-60
2023/03/03 09:55:29;;;;;;;;;;;;;;;3.29;87.03;102647.13;5020264;28;19979;-61
2023/03/03 09:58:00;;;;;;;;;;;;;;;3.33;86.92;102639.00;5019172;28;19921;-61
2023/03/03 10:00:54;;;;;;;;;;;;;;;3.39;87.08;102636.03;5024539;28;20283;-61
2023/03/03 10:03:32;;;;;;;;;;;;;;;3.48;86.81;102644.41;5012454;28;19921;-60
2023/03/03 10:06:01;;;;;;;;;;;;;;;3.53;86.67;102645.00;5019573;28;19978;-60
2023/03/03 10:08:41;;;;;;;;;;;;;;;3.57;86.65;102647.38;5024802;28;19917;-61
2023/03/03 10:11:09;;;;;;;;;;;;;;;3.62;86.50;102641.88;5020557;28;20014;-60
2023/03/03 10:13:41;;;;;;;;;;;;;;;3.64;86.36;102646.13;5027561;28;19921;-60
2023/03/03 10:16:25;;;;;;;;;;;;;;;3.67;86.18;102647.72;5021838;28;19917;-61
2023/03/03 10:19:10;;;;;;;;;;;;;;;3.71;85.95;102646.63;5018295;28;20853;-60
2023/03/03 10:21:43;;;;;;;;;;;;;;;3.77;86.03;102648.97;5002158;28;19918;-61
2023/03/03 10:24:27;;;;;;;;;;;;;;;3.81;85.99;102650.50;5018692;28;19925;-60
2023/03/03 10:27:11;;;;;;;;;;;;;;;3.86;85.99;102651.09;5019824;28;19921;-60
2023/03/03 10:32:21;;;;;;;;;;;;;;;3.94;85.49;102641.00;5184029;22;19925;-60
2023/03/03 10:34:46;;;;;;;;;;;;;;;3.99;85.41;102641.59;5029686;28;20678;-60
2023/03/03 10:37:23;;;;;;;;;;;;;;;4.06;85.25;102654.41;5026345;28;20377;-60
2023/03/03 10:39:57;;;;;;;;;;;;;;;4.12;85.02;102654.06;5023732;28;20598;-60
2023/03/03 10:42:39;;;;;;;;;;;;;;;4.16;85.00;102652.97;5020293;28;20398;-60
2023/03/03 10:45:20;;;;;;;;;;;;;;;4.21;84.97;102654.41;5019900;28;19943;-60
2023/03/03 10:47:54;;;;;;;;;;;;;;;4.27;84.77;102648.81;5017322;28;20406;-60
2023/03/03 10:50:27;;;;;;;;;;;;;;;4.37;84.86;102654.41;5016581;28;19917;-60
2023/03/03 10:53:09;;;;;;;;;;;;;;;4.41;84.27;102653.31;5015326;28;19994;-60
2023/03/03 10:55:39;;;;;;;;;;;;;;;4.44;84.01;102647.03;5026744;28;20012;-60
2023/03/03 10:58:15;;;;;;;;;;;;;;;4.44;83.58;102641.75;5023253;28;20397;-60
2023/03/03 11:00:59;;;;;;;;;;;;;;;4.47;83.42;102655.59;5024379;28;19913;-60
2023/03/03 11:03:42;;;;;;;;;;;;;;;4.50;83.35;102641.41;5026844;28;20374;-60
2023/03/03 11:06:26;;;;;;;;;;;;;;;4.58;83.56;102640.03;5026346;28;19913;-60
2023/03/03 11:08:55;;;;;;;;;;;;;;;4.65;83.49;102649.28;5025567;28;19925;-60
2023/03/03 11:11:27;;;;;;;;;;;;;;;4.68;82.97;102645.63;5024040;28;19918;-60
2023/03/03 11:13:52;;;;;;;;;;;;;;;4.71;82.65;102644.59;5028554;28;19928;-60
2023/03/03 11:16:32;;;;;;;;;;;;;;;4.73;82.24;102640.94;5025584;28;19932;-60
2023/03/03 11:19:14;;;;;;;;;;;;;;;4.78;82.35;102644.16;5028881;28;19917;-60
2023/03/03 11:21:39;;;;;;;;;;;;;;;4.85;82.38;102639.38;5023467;28;20330;-60
2023/03/03 11:24:12;;;;;;;;;;;;;;;4.90;81.88;102639.94;5024165;28;20066;-60
2023/03/03 11:26:37;;;;;;;;;;;;;;;4.94;81.42;102639.72;5026489;28;19916;-60
2023/03/03 11:29:08;;;;;;;;;;;;;;;5.07;81.71;102639.81;5023132;28;19928;-60
2023/03/03 11:31:41;;;;;;;;;;;;;;;5.25;81.90;102635.25;5027127;28;19925;-60
2023/03/03 11:34:13;;;;;;;;;;;;;;;5.43;81.55;102628.88;5026867;28;19921;-60
2023/03/03 11:36:42;;;;;;;;;;;;;;;5.60;80.98;102627.84;5025581;28;20016;-60
2023/03/03 11:39:10;;;;;;;;;;;;;;;5.77;80.98;102625.00;5026555;28;19970;-60
2023/03/03 11:41:49;;;;;;;;;;;;;;;6.01;80.97;102629.72;5027342;28;19917;-60
2023/03/03 11:44:33;;;;;;;;;;;;;;;6.29;80.22;102616.44;5026072;28;19924;-60
2023/03/03 11:47:03;;;;;;;;;;;;;;;6.43;78.96;102621.69;5023235;28;19940;-60
2023/03/03 11:49:37;;;;;;;;;;;;;;;6.61;78.46;102627.53;5028503;28;19964;-60
2023/03/03 11:52:19;;;;;;;;;;;;;;;6.83;78.38;102627.81;5019264;28;20012;-60
2023/03/03 11:54:55;;;;;;;;;;;;;;;6.88;78.14;102619.59;5030118;28;20344;-60
2023/03/03 11:57:23;;;;;;;;;;;;;;;6.89;77.64;102615.16;5026471;28;19933;-60
2023/03/03 11:59:54;;;;;;;;;;;;;;;6.92;77.60;102621.06;5027772;28;20603;-60
2023/03/03 12:02:26;;;;;;;;;;;;;;;6.96;76.99;102627.88;5026075;28;19923;-60
2023/03/03 12:05:03;;;;;;;;;;;;;;;6.97;76.86;102613.72;5025696;28;19913;-60
2023/03/03 12:07:39;;;;;;;;;;;;;;;6.99;76.69;102622.38;5019951;28;20352;-60
2023/03/03 12:10:26;;;;;;;;;;;;;;;7.01;75.93;102624.91;5019442;28;19956;-60
2023/03/03 12:13:04;;;;;;;;;;;;;;;6.97;74.94;102615.50;5023026;28;20008;-60
2023/03/03 12:15:49;;;;;;;;;;;;;;;6.94;74.85;102610.41;5021760;28;19936;-60
2023/03/03 12:18:18;;;;;;;;;;;;;;;6.97;74.09;102608.44;5024443;28;19921;-60
2023/03/03 12:21:03;;;;;;;;;;;;;;;7.07;74.42;102606.84;5016081;28;19924;-60
2023/03/03 12:23:34;;;;;;;;;;;;;;;7.27;74.51;102599.34;5019155;28;19951;-60
2023/03/03 12:26:02;;;;;;;;;;;;;;;7.49;74.40;102601.31;5019928;28;20485;-60
2023/03/03 12:28:33;;;;;;;;;;;;;;;7.72;73.87;102590.84;5026376;28;19924;-60
2023/03/03 12:30:58;;;;;;;;;;;;;;;7.91;72.91;102592.16;5015523;28;20007;-60
2023/03/03 12:33:38;;;;;;;;;;;;;;;8.09;72.71;102582.88;5019065;28;20738;-60
2023/03/03 12:36:29;;;;;;;;;;;;;;;8.28;72.67;102585.03;5018774;28;20008;-60
2023/03/03 12:39:06;;;;;;;;;;;;;;;8.30;71.85;102580.47;4999859;28;19917;-60
2023/03/03 12:41:39;;;;;;;;;;;;;;;8.40;71.01;102575.41;5022584;28;19917;-60
2023/03/03 12:44:05;;;;;;;;;;;;;;;8.59;70.25;102578.34;5027531;28;20402;-60
2023/03/03 12:46:42;;;;;;;;;;;;;;;8.83;69.82;102580.97;5035223;28;20003;-60
2023/03/03 12:49:07;;;;;;;;;;;;;;;9.12;69.57;102578.72;5026954;28;19917;-60
2023/03/03 12:51:32;;;;;;;;;;;;;;;9.24;68.59;102578.59;5027022;28;19924;-60
2023/03/03 12:54:16;;;;;;;;;;;;;;;9.34;67.24;102568.16;5027297;28;20012;-60
2023/03/03 12:56:49;;;;;;;;;;;;;;;9.54;66.94;102574.50;5026733;28;19975;-60
2023/03/03 12:59:23;;;;;;;;;;;;;;;9.73;66.68;102573.91;5027171;28;20440;-60